sensor_id;sensor_type;location;lat;lon;timestamp;P1;durP1;ratioP1;P2;durP2;ratioP2
79490;SDS011;68950;53.098;18.032;2023-05-07T00:00:12;8.00;;;3.30;;
79490;SDS011;68950;53.098;18.032;2023-05-07T00:03:01;7.10;;;3.30;;
79490;SDS011;68950;53.098;18.032;2023-05-07T00:05:28;7.50;;;2.90;;
79490;SDS011;68950;53.098;18.032;2023-05-07T00:07:55;7.60;;;3.10;;
79490;SDS011;68950;53.098;18.032;2023-05-07T00:10:22;7.20;;;3.00;;
79490;SDS011;68950;53.098;18.032;2023-05-07T00:12:49;6.70;;;3.00;;
79490;SDS011;68950;53.098;18.032;2023-05-07T00:15:15;7.50;;;3.00;;
79490;SDS011;68950;53.098;18.032;2023-05-07T00:17:42;6.60;;;2.60;;
79490;SDS011;68950;53.098;18.032;2023-05-07T00:20:09;7.10;;;2.70;;
79490;SDS011;68950;53.098;18.032;2023-05-07T00:22:36;7.10;;;2.80;;
79490;SDS011;68950;53.098;18.032;2023-05-07T00:25:03;7.10;;;3.10;;
79490;SDS011;68950;53.098;18.032;2023-05-07T00:27:31;8.30;;;3.10;;
79490;SDS011;68950;53.098;18.032;2023-05-07T00:29:57;6.20;;;3.00;;
79490;SDS011;68950;53.098;18.032;2023-05-07T00:32:24;6.70;;;3.00;;
79490;SDS011;68950;53.098;18.032;2023-05-07T00:34:51;8.10;;;2.90;;
79490;SDS011;68950;53.098;18.032;2023-05-07T00:37:17;7.10;;;3.10;;
79490;SDS011;68950;53.098;18.032;2023-05-07T00:39:44;7.70;;;3.00;;
79490;SDS011;68950;53.098;18.032;2023-05-07T00:42:10;7.20;;;3.10;;
79490;SDS011;68950;53.098;18.032;2023-05-07T00:44:37;6.60;;;2.90;;
79490;SDS011;68950;53.098;18.032;2023-05-07T00:47:04;7.50;;;3.20;;
79490;SDS011;68950;53.098;18.032;2023-05-07T00:49:44;7.30;;;3.10;;
79490;SDS011;68950;53.098;18.032;2023-05-07T00:52:14;6.60;;;2.80;;
79490;SDS011;68950;53.098;18.032;2023-05-07T00:54:43;6.80;;;3.00;;
79490;SDS011;68950;53.098;18.032;2023-05-07T00:57:10;8.40;;;3.10;;
79490;SDS011;68950;53.098;18.032;2023-05-07T00:59:37;7.50;;;3.20;;
79490;SDS011;68950;53.098;18.032;2023-05-07T01:02:06;6.30;;;3.00;;
79490;SDS011;68950;53.098;18.032;2023-05-07T01:04:33;6.80;;;2.80;;
79490;SDS011;68950;53.098;18.032;2023-05-07T01:07:01;6.80;;;3.10;;
79490;SDS011;68950;53.098;18.032;2023-05-07T01:09:28;6.10;;;2.90;;
79490;SDS011;68950;53.098;18.032;2023-05-07T01:11:56;7.10;;;3.10;;
79490;SDS011;68950;53.098;18.032;2023-05-07T01:14:24;7.60;;;3.40;;
79490;SDS011;68950;53.098;18.032;2023-05-07T01:16:52;6.50;;;2.80;;
79490;SDS011;68950;53.098;18.032;2023-05-07T01:19:19;5.80;;;2.80;;
79490;SDS011;68950;53.098;18.032;2023-05-07T01:21:47;6.40;;;2.80;;
79490;SDS011;68950;53.098;18.032;2023-05-07T01:24:15;6.30;;;2.80;;
79490;SDS011;68950;53.098;18.032;2023-05-07T01:26:43;6.80;;;3.10;;
79490;SDS011;68950;53.098;18.032;2023-05-07T01:29:13;5.50;;;2.60;;
79490;SDS011;68950;53.098;18.032;2023-05-07T01:31:41;6.90;;;2.90;;
79490;SDS011;68950;53.098;18.032;2023-05-07T01:34:09;5.60;;;2.60;;
79490;SDS011;68950;53.098;18.032;2023-05-07T01:36:39;5.90;;;2.70;;
79490;SDS011;68950;53.098;18.032;2023-05-07T01:39:07;5.60;;;2.70;;
79490;SDS011;68950;53.098;18.032;2023-05-07T01:41:35;6.00;;;3.00;;
79490;SDS011;68950;53.098;18.032;2023-05-07T01:44:03;6.50;;;2.70;;
79490;SDS011;68950;53.098;18.032;2023-05-07T01:46:31;6.50;;;3.20;;
79490;SDS011;68950;53.098;18.032;2023-05-07T01:48:59;6.20;;;3.00;;
79490;SDS011;68950;53.098;18.032;2023-05-07T01:51:25;6.30;;;2.90;;
79490;SDS011;68950;53.098;18.032;2023-05-07T01:53:53;5.60;;;2.60;;
79490;SDS011;68950;53.098;18.032;2023-05-07T01:56:20;6.50;;;3.20;;
79490;SDS011;68950;53.098;18.032;2023-05-07T01:58:47;7.20;;;3.00;;
79490;SDS011;68950;53.098;18.032;2023-05-07T02:01:14;5.50;;;2.70;;
79490;SDS011;68950;53.098;18.032;2023-05-07T02:03:40;6.20;;;2.50;;
79490;SDS011;68950;53.098;18.032;2023-05-07T02:06:07;5.70;;;3.00;;
79490;SDS011;68950;53.098;18.032;2023-05-07T02:08:34;7.20;;;2.90;;
79490;SDS011;68950;53.098;18.032;2023-05-07T02:11:01;6.40;;;2.70;;
79490;SDS011;68950;53.098;18.032;2023-05-07T02:13:29;7.10;;;3.00;;
79490;SDS011;68950;53.098;18.032;2023-05-07T02:15:58;6.40;;;2.70;;
79490;SDS011;68950;53.098;18.032;2023-05-07T02:18:25;6.50;;;2.80;;
79490;SDS011;68950;53.098;18.032;2023-05-07T02:20:51;4.80;;;2.30;;
79490;SDS011;68950;53.098;18.032;2023-05-07T02:23:18;5.80;;;2.60;;
79490;SDS011;68950;53.098;18.032;2023-05-07T02:25:45;5.60;;;2.60;;
79490;SDS011;68950;53.098;18.032;2023-05-07T02:28:12;6.40;;;2.80;;
79490;SDS011;68950;53.098;18.032;2023-05-07T02:30:39;6.50;;;2.60;;
79490;SDS011;68950;53.098;18.032;2023-05-07T02:33:06;5.90;;;2.80;;
79490;SDS011;68950;53.098;18.032;2023-05-07T02:35:34;7.10;;;2.80;;
79490;SDS011;68950;53.098;18.032;2023-05-07T02:38:01;7.00;;;2.90;;
79490;SDS011;68950;53.098;18.032;2023-05-07T02:40:28;6.20;;;2.90;;
79490;SDS011;68950;53.098;18.032;2023-05-07T02:42:55;6.30;;;2.70;;
79490;SDS011;68950;53.098;18.032;2023-05-07T02:45:21;6.00;;;3.00;;
79490;SDS011;68950;53.098;18.032;2023-05-07T02:47:48;5.90;;;2.80;;
79490;SDS011;68950;53.098;18.032;2023-05-07T02:50:14;6.30;;;2.90;;
79490;SDS011;68950;53.098;18.032;2023-05-07T02:52:41;6.30;;;2.70;;
79490;SDS011;68950;53.098;18.032;2023-05-07T02:55:08;5.80;;;2.90;;
79490;SDS011;68950;53.098;18.032;2023-05-07T02:57:35;6.20;;;2.90;;
79490;SDS011;68950;53.098;18.032;2023-05-07T03:00:11;7.00;;;2.80;;
79490;SDS011;68950;53.098;18.032;2023-05-07T03:02:41;6.30;;;2.90;;
79490;SDS011;68950;53.098;18.032;2023-05-07T03:05:08;6.30;;;2.70;;
79490;SDS011;68950;53.098;18.032;2023-05-07T03:07:35;6.80;;;2.80;;
79490;SDS011;68950;53.098;18.032;2023-05-07T03:10:03;6.10;;;2.70;;
79490;SDS011;68950;53.098;18.032;2023-05-07T03:12:30;6.70;;;2.90;;
79490;SDS011;68950;53.098;18.032;2023-05-07T03:14:57;6.00;;;2.80;;
79490;SDS011;68950;53.098;18.032;2023-05-07T03:17:24;5.40;;;2.60;;
79490;SDS011;68950;53.098;18.032;2023-05-07T03:19:50;4.50;;;2.40;;
79490;SDS011;68950;53.098;18.032;2023-05-07T03:22:17;5.60;;;2.90;;
79490;SDS011;68950;53.098;18.032;2023-05-07T03:24:44;5.90;;;2.70;;
79490;SDS011;68950;53.098;18.032;2023-05-07T03:27:10;6.00;;;2.80;;
79490;SDS011;68950;53.098;18.032;2023-05-07T03:29:37;6.10;;;2.80;;
79490;SDS011;68950;53.098;18.032;2023-05-07T03:32:04;5.70;;;2.90;;
79490;SDS011;68950;53.098;18.032;2023-05-07T03:34:31;5.20;;;2.40;;
79490;SDS011;68950;53.098;18.032;2023-05-07T03:36:58;6.00;;;2.80;;
79490;SDS011;68950;53.098;18.032;2023-05-07T03:39:25;6.00;;;2.90;;
79490;SDS011;68950;53.098;18.032;2023-05-07T03:41:52;6.60;;;2.90;;
79490;SDS011;68950;53.098;18.032;2023-05-07T03:44:19;5.50;;;2.80;;
79490;SDS011;68950;53.098;18.032;2023-05-07T03:46:46;6.10;;;2.90;;
79490;SDS011;68950;53.098;18.032;2023-05-07T03:49:12;5.80;;;3.00;;
79490;SDS011;68950;53.098;18.032;2023-05-07T03:51:39;5.30;;;2.90;;
79490;SDS011;68950;53.098;18.032;2023-05-07T03:54:06;6.10;;;3.30;;
79490;SDS011;68950;53.098;18.032;2023-05-07T03:56:33;6.80;;;2.90;;
79490;SDS011;68950;53.098;18.032;2023-05-07T03:59:00;6.60;;;3.20;;
79490;SDS011;68950;53.098;18.032;2023-05-07T04:01:28;6.00;;;3.20;;
79490;SDS011;68950;53.098;18.032;2023-05-07T04:03:55;6.40;;;3.20;;
79490;SDS011;68950;53.098;18.032;2023-05-07T04:06:22;6.00;;;3.10;;
79490;SDS011;68950;53.098;18.032;2023-05-07T04:08:48;5.70;;;3.00;;
79490;SDS011;68950;53.098;18.032;2023-05-07T04:11:15;5.60;;;3.00;;
79490;SDS011;68950;53.098;18.032;2023-05-07T04:13:42;5.70;;;2.90;;
79490;SDS011;68950;53.098;18.032;2023-05-07T04:16:08;7.00;;;3.20;;
79490;SDS011;68950;53.098;18.032;2023-05-07T04:18:35;5.20;;;3.10;;
79490;SDS011;68950;53.098;18.032;2023-05-07T04:21:01;6.20;;;3.20;;
79490;SDS011;68950;53.098;18.032;2023-05-07T04:23:28;5.60;;;2.90;;
79490;SDS011;68950;53.098;18.032;2023-05-07T04:25:55;6.10;;;2.90;;
79490;SDS011;68950;53.098;18.032;2023-05-07T04:28:22;6.40;;;2.90;;
79490;SDS011;68950;53.098;18.032;2023-05-07T04:30:50;6.80;;;3.30;;
79490;SDS011;68950;53.098;18.032;2023-05-07T04:33:17;5.90;;;2.70;;
79490;SDS011;68950;53.098;18.032;2023-05-07T04:35:44;5.70;;;3.10;;
79490;SDS011;68950;53.098;18.032;2023-05-07T04:38:11;5.90;;;3.00;;
79490;SDS011;68950;53.098;18.032;2023-05-07T04:40:37;6.00;;;3.10;;
79490;SDS011;68950;53.098;18.032;2023-05-07T04:43:05;5.70;;;3.10;;
79490;SDS011;68950;53.098;18.032;2023-05-07T04:45:32;5.80;;;3.20;;
79490;SDS011;68950;53.098;18.032;2023-05-07T04:47:58;6.20;;;2.90;;
79490;SDS011;68950;53.098;18.032;2023-05-07T04:50:25;6.80;;;3.10;;
79490;SDS011;68950;53.098;18.032;2023-05-07T04:52:52;6.10;;;3.30;;
79490;SDS011;68950;53.098;18.032;2023-05-07T04:55:19;5.90;;;3.10;;
79490;SDS011;68950;53.098;18.032;2023-05-07T04:57:46;6.60;;;3.10;;
79490;SDS011;68950;53.098;18.032;2023-05-07T05:00:14;6.30;;;3.00;;
79490;SDS011;68950;53.098;18.032;2023-05-07T05:02:40;6.10;;;3.00;;
79490;SDS011;68950;53.098;18.032;2023-05-07T05:05:07;6.50;;;3.00;;
79490;SDS011;68950;53.098;18.032;2023-05-07T05:07:34;5.30;;;3.00;;
79490;SDS011;68950;53.098;18.032;2023-05-07T05:10:02;5.90;;;2.90;;
79490;SDS011;68950;53.098;18.032;2023-05-07T05:12:29;6.20;;;3.00;;
79490;SDS011;68950;53.098;18.032;2023-05-07T05:14:56;5.90;;;3.10;;
79490;SDS011;68950;53.098;18.032;2023-05-07T05:17:23;6.30;;;3.10;;
79490;SDS011;68950;53.098;18.032;2023-05-07T05:19:50;7.10;;;3.80;;
79490;SDS011;68950;53.098;18.032;2023-05-07T05:22:17;7.70;;;4.20;;
79490;SDS011;68950;53.098;18.032;2023-05-07T05:24:43;9.80;;;5.20;;
79490;SDS011;68950;53.098;18.032;2023-05-07T05:27:10;8.90;;;5.40;;
79490;SDS011;68950;53.098;18.032;2023-05-07T05:29:36;10.40;;;6.10;;
79490;SDS011;68950;53.098;18.032;2023-05-07T05:32:03;9.90;;;5.70;;
79490;SDS011;68950;53.098;18.032;2023-05-07T05:34:30;9.20;;;6.10;;
79490;SDS011;68950;53.098;18.032;2023-05-07T05:36:56;9.70;;;5.70;;
79490;SDS011;68950;53.098;18.032;2023-05-07T05:39:23;9.80;;;5.70;;
79490;SDS011;68950;53.098;18.032;2023-05-07T05:41:50;10.50;;;6.00;;
79490;SDS011;68950;53.098;18.032;2023-05-07T05:44:16;10.40;;;5.70;;
79490;SDS011;68950;53.098;18.032;2023-05-07T05:46:43;10.00;;;5.60;;
79490;SDS011;68950;53.098;18.032;2023-05-07T05:49:10;8.80;;;5.40;;
79490;SDS011;68950;53.098;18.032;2023-05-07T05:51:36;10.20;;;5.50;;
79490;SDS011;68950;53.098;18.032;2023-05-07T05:54:03;9.10;;;5.70;;
79490;SDS011;68950;53.098;18.032;2023-05-07T05:56:29;9.60;;;5.70;;
79490;SDS011;68950;53.098;18.032;2023-05-07T05:58:57;9.50;;;5.60;;
79490;SDS011;68950;53.098;18.032;2023-05-07T06:01:24;9.20;;;5.60;;
79490;SDS011;68950;53.098;18.032;2023-05-07T06:03:50;11.90;;;6.00;;
79490;SDS011;68950;53.098;18.032;2023-05-07T06:06:17;10.00;;;5.50;;
79490;SDS011;68950;53.098;18.032;2023-05-07T06:08:43;8.00;;;5.10;;
79490;SDS011;68950;53.098;18.032;2023-05-07T06:11:10;8.30;;;4.90;;
79490;SDS011;68950;53.098;18.032;2023-05-07T06:13:37;7.90;;;4.80;;
79490;SDS011;68950;53.098;18.032;2023-05-07T06:16:04;8.50;;;5.00;;
79490;SDS011;68950;53.098;18.032;2023-05-07T06:18:31;11.20;;;5.10;;
79490;SDS011;68950;53.098;18.032;2023-05-07T06:20:58;8.90;;;4.80;;
79490;SDS011;68950;53.098;18.032;2023-05-07T06:23:24;9.30;;;5.00;;
79490;SDS011;68950;53.098;18.032;2023-05-07T06:25:51;10.00;;;4.90;;
79490;SDS011;68950;53.098;18.032;2023-05-07T06:28:18;8.60;;;5.60;;
79490;SDS011;68950;53.098;18.032;2023-05-07T06:30:45;10.30;;;4.90;;
79490;SDS011;68950;53.098;18.032;2023-05-07T06:33:11;11.20;;;5.20;;
79490;SDS011;68950;53.098;18.032;2023-05-07T06:35:38;10.70;;;4.40;;
79490;SDS011;68950;53.098;18.032;2023-05-07T06:38:05;8.10;;;4.40;;
79490;SDS011;68950;53.098;18.032;2023-05-07T06:40:31;10.40;;;4.60;;
79490;SDS011;68950;53.098;18.032;2023-05-07T06:42:58;8.50;;;5.10;;
79490;SDS011;68950;53.098;18.032;2023-05-07T06:45:24;9.30;;;5.00;;
79490;SDS011;68950;53.098;18.032;2023-05-07T06:47:51;9.10;;;4.80;;
79490;SDS011;68950;53.098;18.032;2023-05-07T06:50:18;7.70;;;4.70;;
79490;SDS011;68950;53.098;18.032;2023-05-07T06:52:44;7.60;;;4.60;;
79490;SDS011;68950;53.098;18.032;2023-05-07T06:55:11;9.10;;;4.90;;
79490;SDS011;68950;53.098;18.032;2023-05-07T06:57:38;9.50;;;5.30;;
79490;SDS011;68950;53.098;18.032;2023-05-07T07:00:05;8.90;;;5.00;;
79490;SDS011;68950;53.098;18.032;2023-05-07T07:02:36;9.90;;;4.80;;
79490;SDS011;68950;53.098;18.032;2023-05-07T07:05:03;8.00;;;4.50;;
79490;SDS011;68950;53.098;18.032;2023-05-07T07:07:31;8.60;;;5.00;;
79490;SDS011;68950;53.098;18.032;2023-05-07T07:09:57;7.90;;;4.40;;
79490;SDS011;68950;53.098;18.032;2023-05-07T07:12:24;8.00;;;4.30;;
79490;SDS011;68950;53.098;18.032;2023-05-07T07:14:52;9.70;;;4.90;;
79490;SDS011;68950;53.098;18.032;2023-05-07T07:17:19;8.70;;;4.60;;
79490;SDS011;68950;53.098;18.032;2023-05-07T07:19:45;8.90;;;4.70;;
79490;SDS011;68950;53.098;18.032;2023-05-07T07:22:12;8.20;;;4.80;;
79490;SDS011;68950;53.098;18.032;2023-05-07T07:24:38;8.60;;;4.70;;
79490;SDS011;68950;53.098;18.032;2023-05-07T07:27:05;8.10;;;4.50;;
79490;SDS011;68950;53.098;18.032;2023-05-07T07:29:31;8.50;;;4.50;;
79490;SDS011;68950;53.098;18.032;2023-05-07T07:31:58;7.20;;;4.50;;
79490;SDS011;68950;53.098;18.032;2023-05-07T07:34:24;8.00;;;4.90;;
79490;SDS011;68950;53.098;18.032;2023-05-07T07:36:51;8.40;;;4.20;;
79490;SDS011;68950;53.098;18.032;2023-05-07T07:39:18;7.10;;;4.20;;
79490;SDS011;68950;53.098;18.032;2023-05-07T07:41:44;7.50;;;4.20;;
79490;SDS011;68950;53.098;18.032;2023-05-07T07:44:11;8.80;;;4.50;;
79490;SDS011;68950;53.098;18.032;2023-05-07T07:46:39;8.40;;;4.60;;
79490;SDS011;68950;53.098;18.032;2023-05-07T07:49:06;7.10;;;4.20;;
79490;SDS011;68950;53.098;18.032;2023-05-07T07:51:32;7.00;;;4.50;;
79490;SDS011;68950;53.098;18.032;2023-05-07T07:53:59;7.70;;;4.50;;
79490;SDS011;68950;53.098;18.032;2023-05-07T07:56:27;7.90;;;4.40;;
79490;SDS011;68950;53.098;18.032;2023-05-07T07:58:53;8.10;;;4.40;;
79490;SDS011;68950;53.098;18.032;2023-05-07T08:01:20;8.00;;;4.20;;
79490;SDS011;68950;53.098;18.032;2023-05-07T08:03:47;7.10;;;4.10;;
79490;SDS011;68950;53.098;18.032;2023-05-07T08:06:13;7.50;;;4.50;;
79490;SDS011;68950;53.098;18.032;2023-05-07T08:08:40;7.20;;;4.20;;
79490;SDS011;68950;53.098;18.032;2023-05-07T08:11:07;7.90;;;4.40;;
79490;SDS011;68950;53.098;18.032;2023-05-07T08:13:34;8.00;;;4.20;;
79490;SDS011;68950;53.098;18.032;2023-05-07T08:16:01;6.40;;;3.60;;
79490;SDS011;68950;53.098;18.032;2023-05-07T08:18:27;7.40;;;4.20;;
79490;SDS011;68950;53.098;18.032;2023-05-07T08:20:55;7.20;;;5.90;;
79490;SDS011;68950;53.098;18.032;2023-05-07T08:23:22;6.20;;;4.00;;
79490;SDS011;68950;53.098;18.032;2023-05-07T08:25:49;6.90;;;3.80;;
79490;SDS011;68950;53.098;18.032;2023-05-07T08:28:17;7.20;;;4.00;;
79490;SDS011;68950;53.098;18.032;2023-05-07T08:30:44;6.20;;;3.70;;
79490;SDS011;68950;53.098;18.032;2023-05-07T08:33:10;8.90;;;4.00;;
79490;SDS011;68950;53.098;18.032;2023-05-07T08:35:37;6.70;;;3.90;;
79490;SDS011;68950;53.098;18.032;2023-05-07T08:38:03;6.10;;;3.80;;
79490;SDS011;68950;53.098;18.032;2023-05-07T08:40:35;6.70;;;3.40;;
79490;SDS011;68950;53.098;18.032;2023-05-07T08:43:05;7.10;;;4.00;;
79490;SDS011;68950;53.098;18.032;2023-05-07T08:45:34;7.20;;;3.90;;
79490;SDS011;68950;53.098;18.032;2023-05-07T08:48:02;6.00;;;3.60;;
79490;SDS011;68950;53.098;18.032;2023-05-07T08:50:35;7.40;;;3.80;;
79490;SDS011;68950;53.098;18.032;2023-05-07T08:53:03;6.70;;;3.70;;
79490;SDS011;68950;53.098;18.032;2023-05-07T08:55:31;6.50;;;3.80;;
79490;SDS011;68950;53.098;18.032;2023-05-07T08:57:57;6.80;;;4.00;;
79490;SDS011;68950;53.098;18.032;2023-05-07T09:00:24;7.00;;;3.90;;
79490;SDS011;68950;53.098;18.032;2023-05-07T09:02:52;6.60;;;3.50;;
79490;SDS011;68950;53.098;18.032;2023-05-07T09:05:20;7.00;;;3.90;;
79490;SDS011;68950;53.098;18.032;2023-05-07T09:07:47;6.40;;;3.90;;
79490;SDS011;68950;53.098;18.032;2023-05-07T09:10:14;8.00;;;4.00;;
79490;SDS011;68950;53.098;18.032;2023-05-07T09:12:40;6.00;;;3.50;;
79490;SDS011;68950;53.098;18.032;2023-05-07T09:15:08;6.70;;;3.50;;
79490;SDS011;68950;53.098;18.032;2023-05-07T09:17:35;6.50;;;3.80;;
79490;SDS011;68950;53.098;18.032;2023-05-07T09:20:04;7.70;;;3.80;;
79490;SDS011;68950;53.098;18.032;2023-05-07T09:22:32;6.70;;;3.70;;
79490;SDS011;68950;53.098;18.032;2023-05-07T09:24:59;6.30;;;3.60;;
79490;SDS011;68950;53.098;18.032;2023-05-07T09:27:26;6.20;;;3.60;;
79490;SDS011;68950;53.098;18.032;2023-05-07T09:29:52;6.30;;;3.40;;
79490;SDS011;68950;53.098;18.032;2023-05-07T09:32:19;6.30;;;3.60;;
79490;SDS011;68950;53.098;18.032;2023-05-07T09:34:46;6.50;;;3.90;;
79490;SDS011;68950;53.098;18.032;2023-05-07T09:37:13;6.20;;;3.50;;
79490;SDS011;68950;53.098;18.032;2023-05-07T09:39:46;6.10;;;3.40;;
79490;SDS011;68950;53.098;18.032;2023-05-07T09:42:14;6.10;;;3.30;;
79490;SDS011;68950;53.098;18.032;2023-05-07T09:44:43;6.30;;;3.70;;
79490;SDS011;68950;53.098;18.032;2023-05-07T09:47:11;6.20;;;3.40;;
79490;SDS011;68950;53.098;18.032;2023-05-07T09:49:42;6.30;;;3.40;;
79490;SDS011;68950;53.098;18.032;2023-05-07T09:52:14;6.60;;;3.30;;
79490;SDS011;68950;53.098;18.032;2023-05-07T09:54:43;6.80;;;3.50;;
79490;SDS011;68950;53.098;18.032;2023-05-07T09:57:11;6.20;;;3.40;;
79490;SDS011;68950;53.098;18.032;2023-05-07T09:59:42;7.00;;;3.50;;
79490;SDS011;68950;53.098;18.032;2023-05-07T10:02:10;6.30;;;3.70;;
79490;SDS011;68950;53.098;18.032;2023-05-07T10:04:39;6.00;;;3.50;;
79490;SDS011;68950;53.098;18.032;2023-05-07T10:07:07;5.60;;;3.10;;
79490;SDS011;68950;53.098;18.032;2023-05-07T10:09:35;6.20;;;3.40;;
79490;SDS011;68950;53.098;18.032;2023-05-07T10:12:05;6.70;;;3.50;;
79490;SDS011;68950;53.098;18.032;2023-05-07T10:14:33;5.10;;;2.90;;
79490;SDS011;68950;53.098;18.032;2023-05-07T10:17:02;6.30;;;3.00;;
79490;SDS011;68950;53.098;18.032;2023-05-07T10:19:29;5.90;;;3.40;;
79490;SDS011;68950;53.098;18.032;2023-05-07T10:22:02;6.90;;;5.80;;
79490;SDS011;68950;53.098;18.032;2023-05-07T10:24:32;6.50;;;3.50;;
79490;SDS011;68950;53.098;18.032;2023-05-07T10:27:11;7.00;;;3.50;;
79490;SDS011;68950;53.098;18.032;2023-05-07T10:33:34;5.80;;;3.10;;
79490;SDS011;68950;53.098;18.032;2023-05-07T10:36:03;6.60;;;3.40;;
79490;SDS011;68950;53.098;18.032;2023-05-07T10:38:32;6.50;;;3.50;;
79490;SDS011;68950;53.098;18.032;2023-05-07T10:40:59;6.30;;;3.30;;
79490;SDS011;68950;53.098;18.032;2023-05-07T10:43:41;6.30;;;3.10;;
79490;SDS011;68950;53.098;18.032;2023-05-07T10:46:14;5.50;;;3.10;;
79490;SDS011;68950;53.098;18.032;2023-05-07T10:51:30;5.90;;;3.30;;
79490;SDS011;68950;53.098;18.032;2023-05-07T10:56:38;6.10;;;3.20;;
79490;SDS011;68950;53.098;18.032;2023-05-07T11:04:24;7.40;;;3.40;;
79490;SDS011;68950;53.098;18.032;2023-05-07T11:15:05;6.20;;;3.00;;
79490;SDS011;68950;53.098;18.032;2023-05-07T11:17:33;5.60;;;3.20;;
79490;SDS011;68950;53.098;18.032;2023-05-07T11:20:02;5.90;;;3.60;;
79490;SDS011;68950;53.098;18.032;2023-05-07T11:25:04;5.60;;;3.10;;
79490;SDS011;68950;53.098;18.032;2023-05-07T11:27:33;5.30;;;3.20;;
79490;SDS011;68950;53.098;18.032;2023-05-07T11:30:00;5.10;;;2.80;;
79490;SDS011;68950;53.098;18.032;2023-05-07T11:32:31;5.90;;;3.20;;
79490;SDS011;68950;53.098;18.032;2023-05-07T11:34:59;5.60;;;2.60;;
79490;SDS011;68950;53.098;18.032;2023-05-07T11:37:27;5.40;;;2.90;;
79490;SDS011;68950;53.098;18.032;2023-05-07T11:40:06;5.30;;;2.80;;
79490;SDS011;68950;53.098;18.032;2023-05-07T11:42:36;6.30;;;3.30;;
79490;SDS011;68950;53.098;18.032;2023-05-07T11:45:07;5.70;;;3.10;;
79490;SDS011;68950;53.098;18.032;2023-05-07T11:47:35;5.50;;;3.10;;
79490;SDS011;68950;53.098;18.032;2023-05-07T11:50:06;6.20;;;3.00;;
79490;SDS011;68950;53.098;18.032;2023-05-07T11:52:34;5.30;;;2.90;;
79490;SDS011;68950;53.098;18.032;2023-05-07T11:55:02;5.70;;;3.10;;
79490;SDS011;68950;53.098;18.032;2023-05-07T11:57:33;6.00;;;3.30;;
79490;SDS011;68950;53.098;18.032;2023-05-07T12:00:01;5.50;;;2.80;;
79490;SDS011;68950;53.098;18.032;2023-05-07T12:02:30;5.60;;;3.10;;
79490;SDS011;68950;53.098;18.032;2023-05-07T12:05:00;6.20;;;2.90;;
79490;SDS011;68950;53.098;18.032;2023-05-07T12:07:26;5.00;;;2.90;;
79490;SDS011;68950;53.098;18.032;2023-05-07T12:09:53;5.00;;;2.70;;
79490;SDS011;68950;53.098;18.032;2023-05-07T12:12:20;6.20;;;3.10;;
79490;SDS011;68950;53.098;18.032;2023-05-07T12:14:46;5.60;;;2.90;;
79490;SDS011;68950;53.098;18.032;2023-05-07T12:17:14;6.00;;;3.00;;
79490;SDS011;68950;53.098;18.032;2023-05-07T12:19:42;5.20;;;2.80;;
79490;SDS011;68950;53.098;18.032;2023-05-07T12:22:11;4.50;;;2.60;;
79490;SDS011;68950;53.098;18.032;2023-05-07T12:24:43;4.90;;;2.90;;
79490;SDS011;68950;53.098;18.032;2023-05-07T12:27:11;4.70;;;2.70;;
79490;SDS011;68950;53.098;18.032;2023-05-07T12:29:39;5.70;;;3.00;;
79490;SDS011;68950;53.098;18.032;2023-05-07T12:32:13;4.90;;;2.90;;
79490;SDS011;68950;53.098;18.032;2023-05-07T12:34:44;5.10;;;3.00;;
79490;SDS011;68950;53.098;18.032;2023-05-07T12:37:11;5.20;;;2.80;;
79490;SDS011;68950;53.098;18.032;2023-05-07T12:39:49;5.60;;;2.80;;
79490;SDS011;68950;53.098;18.032;2023-05-07T12:42:33;5.50;;;2.90;;
79490;SDS011;68950;53.098;18.032;2023-05-07T12:45:12;4.80;;;2.40;;
79490;SDS011;68950;53.098;18.032;2023-05-07T12:47:45;5.20;;;2.70;;
79490;SDS011;68950;53.098;18.032;2023-05-07T12:50:16;5.60;;;2.90;;
79490;SDS011;68950;53.098;18.032;2023-05-07T12:52:44;5.40;;;2.70;;
79490;SDS011;68950;53.098;18.032;2023-05-07T12:55:14;5.10;;;2.90;;
79490;SDS011;68950;53.098;18.032;2023-05-07T12:57:45;5.80;;;2.90;;
79490;SDS011;68950;53.098;18.032;2023-05-07T13:00:15;5.20;;;3.10;;
79490;SDS011;68950;53.098;18.032;2023-05-07T13:02:43;4.70;;;2.50;;
79490;SDS011;68950;53.098;18.032;2023-05-07T13:05:10;5.10;;;2.80;;
79490;SDS011;68950;53.098;18.032;2023-05-07T13:07:37;4.70;;;2.60;;
79490;SDS011;68950;53.098;18.032;2023-05-07T13:10:05;5.00;;;2.60;;
79490;SDS011;68950;53.098;18.032;2023-05-07T13:12:32;5.00;;;2.70;;
79490;SDS011;68950;53.098;18.032;2023-05-07T13:14:59;5.20;;;2.90;;
79490;SDS011;68950;53.098;18.032;2023-05-07T13:17:26;4.70;;;2.70;;
79490;SDS011;68950;53.098;18.032;2023-05-07T13:19:52;4.60;;;2.40;;
79490;SDS011;68950;53.098;18.032;2023-05-07T13:22:19;4.50;;;2.60;;
79490;SDS011;68950;53.098;18.032;2023-05-07T13:24:45;5.20;;;3.00;;
79490;SDS011;68950;53.098;18.032;2023-05-07T13:27:12;4.60;;;2.70;;
79490;SDS011;68950;53.098;18.032;2023-05-07T13:29:38;5.60;;;2.60;;
79490;SDS011;68950;53.098;18.032;2023-05-07T13:32:05;4.90;;;2.50;;
79490;SDS011;68950;53.098;18.032;2023-05-07T13:34:32;4.70;;;2.60;;
79490;SDS011;68950;53.098;18.032;2023-05-07T13:36:58;5.20;;;2.60;;
79490;SDS011;68950;53.098;18.032;2023-05-07T13:39:25;5.20;;;2.60;;
79490;SDS011;68950;53.098;18.032;2023-05-07T13:41:52;5.30;;;2.60;;
79490;SDS011;68950;53.098;18.032;2023-05-07T13:44:18;5.40;;;3.00;;
79490;SDS011;68950;53.098;18.032;2023-05-07T13:46:45;5.40;;;3.00;;
79490;SDS011;68950;53.098;18.032;2023-05-07T13:49:12;5.10;;;2.50;;
79490;SDS011;68950;53.098;18.032;2023-05-07T13:51:39;5.20;;;2.70;;
79490;SDS011;68950;53.098;18.032;2023-05-07T13:54:05;5.10;;;2.60;;
79490;SDS011;68950;53.098;18.032;2023-05-07T13:56:32;4.90;;;2.70;;
79490;SDS011;68950;53.098;18.032;2023-05-07T13:58:59;5.20;;;2.70;;
79490;SDS011;68950;53.098;18.032;2023-05-07T14:01:26;6.10;;;3.30;;
79490;SDS011;68950;53.098;18.032;2023-05-07T14:03:53;4.80;;;2.40;;
79490;SDS011;68950;53.098;18.032;2023-05-07T14:06:20;5.20;;;2.90;;
79490;SDS011;68950;53.098;18.032;2023-05-07T14:08:47;4.40;;;2.50;;
79490;SDS011;68950;53.098;18.032;2023-05-07T14:11:13;4.40;;;2.70;;
79490;SDS011;68950;53.098;18.032;2023-05-07T14:13:40;4.80;;;2.80;;
79490;SDS011;68950;53.098;18.032;2023-05-07T14:16:06;4.20;;;2.30;;
79490;SDS011;68950;53.098;18.032;2023-05-07T14:18:33;4.90;;;2.70;;
79490;SDS011;68950;53.098;18.032;2023-05-07T14:21:00;5.00;;;3.10;;
79490;SDS011;68950;53.098;18.032;2023-05-07T14:23:27;4.80;;;2.70;;
79490;SDS011;68950;53.098;18.032;2023-05-07T14:25:54;4.70;;;2.60;;
79490;SDS011;68950;53.098;18.032;2023-05-07T14:28:20;4.80;;;2.60;;
79490;SDS011;68950;53.098;18.032;2023-05-07T14:30:47;4.60;;;2.70;;
79490;SDS011;68950;53.098;18.032;2023-05-07T14:33:14;4.50;;;2.50;;
79490;SDS011;68950;53.098;18.032;2023-05-07T14:35:40;5.10;;;2.90;;
79490;SDS011;68950;53.098;18.032;2023-05-07T14:38:07;4.90;;;2.60;;
79490;SDS011;68950;53.098;18.032;2023-05-07T14:40:34;4.60;;;2.60;;
79490;SDS011;68950;53.098;18.032;2023-05-07T14:43:00;4.80;;;2.40;;
79490;SDS011;68950;53.098;18.032;2023-05-07T14:45:27;5.00;;;2.50;;
79490;SDS011;68950;53.098;18.032;2023-05-07T14:47:54;5.70;;;2.80;;
79490;SDS011;68950;53.098;18.032;2023-05-07T14:50:20;4.80;;;2.40;;
79490;SDS011;68950;53.098;18.032;2023-05-07T14:52:47;4.40;;;2.70;;
79490;SDS011;68950;53.098;18.032;2023-05-07T14:55:13;5.00;;;2.60;;
79490;SDS011;68950;53.098;18.032;2023-05-07T14:57:40;4.50;;;2.30;;
79490;SDS011;68950;53.098;18.032;2023-05-07T15:00:08;4.70;;;2.60;;